Time;durP1;ratioP1;P1;durP2;ratioP2;P2;SDS_P1;SDS_P2;PMS_P1;PMS_P2;Temp;Humidity;BMP_temperature;BMP_pressure;BME280_temperature;BME280_humidity;BME280_pressure;Samples;Min_cycle;Max_cycle;Signal;HPM_P1;HPM_P2
2024/04/05 00:01:40;;;;;;;17.27;3.88;;;;;;;-144.05;70.58;56965.66;5025760;28;20079;-86
2024/04/05 00:04:08;;;;;;;12.88;2.90;;;;;;;-144.05;71.04;56952.91;5019647;28;20318;-83
2024/04/05 00:06:35;;;;;;;13.10;3.72;;;;;;;-144.05;70.36;56980.53;5030752;28;20037;-85
2024/04/05 00:09:03;;;;;;;16.00;4.00;;;;;;;-144.05;70.16;56984.78;5029765;28;20030;-84
2024/04/05 00:11:30;;;;;;;12.65;3.10;;;;;;;-144.05;71.56;56972.03;5024559;28;20127;-83
2024/04/05 00:13:56;;;;;;;16.35;2.67;;;;;;;-144.05;71.98;56959.28;5024288;28;20038;-83
2024/04/05 00:16:22;;;;;;;20.88;3.97;;;9.00;99.90;;;-144.05;71.46;56984.78;5031858;28;20349;-84
2024/04/05 00:18:50;;;;;;;14.88;2.33;;;;;;;-144.05;72.35;56974.16;5038149;28;20036;-83
2024/04/05 00:21:16;;;;;;;15.27;3.17;;;9.00;99.90;;;-144.05;72.82;56989.00;5033530;28;20022;-85
2024/04/05 00:23:42;;;;;;;17.52;3.63;;;;;;;-144.05;73.99;56965.66;5025952;28;20068;-85
2024/04/05 00:26:12;;;;;;;14.07;2.92;;;;;;;-144.05;73.66;56984.78;5026163;28;20120;-86
2024/04/05 00:28:38;;;;;;;11.63;2.50;;;;;;;-144.05;74.18;56972.03;5032049;28;20136;-86
2024/04/05 00:31:10;;;;;;;11.98;3.38;;;9.80;99.90;;;-144.05;73.58;56963.53;5031464;28;20033;-85
2024/04/05 00:33:37;;;;;;;15.48;2.72;;;;;;;-144.05;74.02;56974.16;5025974;28;20025;-87
2024/04/05 00:36:08;;;;;;;11.43;3.15;;;12.00;99.90;;;-144.05;75.76;56967.78;5025666;28;20028;-86
2024/04/05 00:38:34;;;;;;;15.57;3.40;;;8.90;99.90;;;-144.05;74.95;56972.03;5024870;28;20033;-86
2024/04/05 00:41:00;;;;;;;13.15;2.97;;;9.90;99.90;;;-144.05;74.69;56976.28;5025542;28;20037;-85
2024/04/05 00:43:26;;;;;;;12.18;2.30;;;;;;;-144.05;74.73;56967.78;5018327;28;20087;-85
2024/04/05 00:45:55;;;;;;;15.68;2.83;;;;;;;-144.05;75.05;56976.28;5038798;28;20053;-85
2024/04/05 00:48:23;;;;;;;10.98;3.13;;;11.80;99.90;;;-144.05;76.11;56986.91;5023781;28;20135;-85
2024/04/05 00:50:54;;;;;;;12.70;3.00;;;8.70;99.90;;;-144.05;77.60;56974.16;5036970;28;20056;-85
2024/04/05 00:53:32;;;;;;;15.77;2.80;;;8.30;99.90;;;-144.05;77.61;56984.78;5025969;28;20076;-85
2024/04/05 00:56:02;;;;;;;15.38;2.85;;;11.70;99.90;;;-144.05;77.80;56972.03;5020192;28;20034;-85
2024/04/05 00:58:28;;;;;;;14.00;3.10;;;;;;;-144.05;78.65;56963.53;5025062;28;20060;-88
2024/04/05 01:00:56;;;;;;;13.18;2.67;;;11.70;99.90;;;-144.05;78.73;56980.53;5025963;28;20033;-85
2024/04/05 01:03:22;;;;;;;13.18;2.50;;;8.60;99.90;;;-144.05;78.35;56957.16;5022792;28;20029;-84
2024/04/05 01:05:50;;;;;;;13.73;3.17;;;;;;;-144.05;77.78;56967.78;5025292;28;20080;-85
2024/04/05 01:08:17;;;;;;;14.57;2.72;;;;;;;-144.05;76.67;56963.53;5022955;28;20028;-85
2024/04/05 01:10:43;;;;;;;12.40;2.50;;;;;;;-144.05;76.48;56957.16;5025232;28;20037;-84
2024/04/05 01:13:13;;;;;;;13.85;3.50;;;11.70;99.90;;;-144.05;76.25;56993.25;5022357;28;20029;-85
2024/04/05 01:15:40;;;;;;;11.02;2.70;;;;;;;-144.05;75.99;56969.91;5025660;28;20117;-83
2024/04/05 01:18:10;;;;;;;14.13;2.70;;;8.90;99.90;;;-144.05;76.41;56957.16;5031011;28;20021;-85
2024/04/05 01:20:38;;;;;;;14.25;2.72;;;11.70;99.90;;;-144.05;75.95;56961.41;5029351;28;20044;-85
2024/04/05 01:23:12;;;;;;;12.85;3.25;;;11.70;99.90;;;-144.05;77.49;56963.53;5033282;28;20053;-85
2024/04/05 01:25:38;;;;;;;10.48;2.80;;;;;;;-144.05;78.53;56976.28;5030755;28;20078;-86
2024/04/05 01:28:13;;;;;;;16.13;3.17;;;14.70;99.90;;;-144.05;78.99;56982.66;5030466;28;20030;-84
2024/04/05 01:30:40;;;;;;;10.13;2.45;;;;;;;-144.05;77.52;56967.78;5048097;28;20041;-85
2024/04/05 01:33:06;;;;;;;15.75;2.50;;;;;;;-144.05;77.33;56967.78;5031565;28;20379;-85
2024/04/05 01:35:32;;;;;;;17.20;3.00;;;;;;;-144.05;76.77;56952.91;5026451;28;20084;-87
2024/04/05 01:37:59;;;;;;;10.80;2.60;;;;;;;-144.05;76.32;56984.78;5027594;28;20116;-84
2024/04/05 01:40:26;;;;;;;14.32;2.40;;;;;;;-144.05;76.42;56978.41;5033702;28;20120;-81
2024/04/05 01:42:53;;;;;;;10.63;2.60;;;;;;;-144.05;76.94;56984.78;5046673;28;20081;-81
2024/04/05 01:45:20;;;;;;;8.73;2.97;;;;;;;-144.05;77.14;56948.66;5018073;28;20030;-84
2024/04/05 01:47:47;;;;;;;10.07;2.50;;;;;;;-144.05;77.37;56984.78;5025460;28;20078;-85
2024/04/05 01:50:17;;;;;;;12.15;2.42;;;8.50;99.90;;;-144.05;78.00;56976.28;5023760;28;20037;-85
2024/04/05 01:52:45;;;;;;;7.15;1.95;;;;;;;-144.05;79.14;56980.53;5030169;28;20026;-85
2024/04/05 01:55:11;;;;;;;12.70;2.30;;;;;;;-144.05;80.45;56974.16;5030014;28;20029;-84
2024/04/05 01:57:38;;;;;;;14.25;1.90;;;11.80;99.90;;;-144.05;81.32;56972.03;5027602;28;20022;-85
2024/04/05 02:00:06;;;;;;;12.93;2.70;;;14.70;99.90;;;-144.05;81.06;56984.78;5041535;28;20171;-85
2024/04/05 02:02:32;;;;;;;13.45;2.45;;;;;;;-144.05;81.79;56989.00;5014668;28;20107;-83
2024/04/05 02:04:58;;;;;;;6.88;2.50;;;8.30;99.90;;;-144.05;81.51;56967.78;5026813;28;20451;-85
2024/04/05 02:07:28;;;;;;;12.38;2.97;;;;;;;-144.05;82.07;56944.41;5019300;28;20034;-85
2024/04/05 02:09:55;;;;;;;10.25;2.83;;;;;;;-144.05;82.06;56974.16;5028080;28;20029;-85
2024/04/05 02:12:26;;;;;;;15.30;2.10;;;11.80;99.90;;;-144.05;80.06;57014.50;5024601;28;20377;-85
2024/04/05 02:14:53;;;;;;;9.27;2.50;;;;;;;-144.05;82.64;56974.16;5023760;28;20180;-85
2024/04/05 02:17:19;;;;;;;13.27;2.80;;;;;;;-144.05;82.81;56997.50;5020291;28;20506;-84
2024/04/05 02:19:45;;;;;;;9.43;2.60;;;8.70;99.90;;;-144.05;81.64;57012.38;5026084;28;20120;-85
2024/04/05 02:22:12;;;;;;;9.63;3.28;;;;;;;-144.05;81.75;56961.41;5030654;28;20040;-86
2024/04/05 02:24:38;;;;;;;13.85;2.83;;;;;;;-144.05;82.36;56976.28;5030464;28;20033;-85
2024/04/05 02:27:05;;;;;;;11.73;2.15;;;;;;;-144.05;82.99;56957.16;5020172;28;20443;-87
2024/04/05 02:29:33;;;;;;;8.38;1.90;;;;;;;-144.05;82.64;56969.91;5028832;28;20176;-85
2024/04/05 02:31:59;;;;;;;9.23;2.40;;;;;;;-144.05;82.62;56957.16;5030107;28;20079;-84
2024/04/05 02:34:25;;;;;;;6.70;2.60;;;9.40;99.90;;;-144.05;82.18;56955.03;5027986;28;20380;-86
2024/04/05 02:36:52;;;;;;;12.77;2.92;;;;;;;-144.05;82.36;56969.91;5027002;28;20032;-85
2024/04/05 02:39:18;;;;;;;12.95;2.45;;;8.50;99.90;;;-144.05;82.47;56961.41;5023953;28;20035;-84
2024/04/05 02:41:46;;;;;;;11.43;2.35;;;9.20;99.90;;;-144.05;82.27;56961.41;5029151;28;20037;-84
2024/04/05 02:44:12;;;;;;;10.93;3.45;;;;;;;-144.05;82.31;56967.78;5024082;28;20056;-85
2024/04/05 02:46:42;;;;;;;6.40;2.30;;;;;;;-144.05;82.59;56961.41;5049488;28;20133;-88
2024/04/05 02:49:08;;;;;;;13.10;2.78;;;;;;;-144.05;82.92;56957.16;5030748;28;20025;-86
2024/04/05 02:51:35;;;;;;;13.90;3.05;;;;;;;-144.05;83.29;56980.53;5031319;28;20021;-87
2024/04/05 02:54:03;;;;;;;9.65;2.97;;;12.00;99.90;;;-144.05;82.82;56978.41;5014000;28;20057;-86
2024/04/05 02:56:29;;;;;;;11.52;2.90;;;;;;;-144.05;82.79;56963.53;5022978;28;20021;-83
2024/04/05 02:58:56;;;;;;;11.98;2.83;;;;;;;-144.05;82.99;56972.03;5033244;28;20033;-85
2024/04/05 03:01:24;;;;;;;12.95;2.58;;;;;;;-144.05;83.18;56959.28;5028411;28;20033;-85
2024/04/05 03:03:50;;;;;;;16.48;4.07;;;8.60;99.90;;;-144.05;83.57;56976.28;5024311;28;20055;-85
2024/04/05 03:06:17;;;;;;;13.63;2.65;;;;;;;-144.05;84.08;56978.41;5022931;28;20040;-84
2024/04/05 03:08:44;;;;;;;11.13;2.63;;;;;;;-144.05;83.99;56976.28;5026430;28;20033;-85
2024/04/05 03:11:10;;;;;;;16.60;4.05;;;;;;;-144.05;84.24;56967.78;5028838;28;20036;-86
2024/04/05 03:13:37;;;;;;;11.00;3.10;;;;;;;-144.05;83.94;56967.78;5028680;28;20022;-85
2024/04/05 03:16:04;;;;;;;14.70;3.45;;;;;;;-144.05;84.46;56984.78;5026936;28;20032;-84
2024/04/05 03:18:33;;;;;;;16.83;2.58;;;9.70;99.90;;;-144.05;84.21;56974.16;5037587;28;20033;-83
2024/04/05 03:20:59;;;;;;;16.23;2.90;;;;;;;-144.05;84.33;56967.78;5050864;28;20029;-87
2024/04/05 03:23:26;;;;;;;14.10;3.35;;;;;;;-144.05;84.59;56957.16;5035973;28;20041;-85
2024/04/05 03:25:52;;;;;;;13.57;3.38;;;;;;;-144.05;84.03;56980.53;5035114;28;20029;-85
2024/04/05 03:28:18;;;;;;;10.57;2.80;;;;;;;-144.05;83.92;56955.03;5031577;28;20115;-86
2024/04/05 03:30:45;;;;;;;15.15;4.25;;;;;;;-144.05;83.71;56982.66;5034965;28;20044;-85
2024/04/05 03:33:11;;;;;;;11.10;3.08;;;;;;;-144.05;84.01;56957.16;5034993;28;20385;-85
2024/04/05 03:35:38;;;;;;;15.50;3.30;;;12.40;99.90;;;-144.05;83.86;56974.16;5033291;28;20116;-83
2024/04/05 03:38:04;;;;;;;13.65;2.90;;;9.00;99.90;;;-144.05;83.83;56976.28;5038899;28;20104;-88
2024/04/05 03:40:30;;;;;;;15.77;4.05;;;9.90;99.90;;;-144.05;83.66;56969.91;5050698;28;20025;-83
2024/04/05 03:42:56;;;;;;;10.38;2.90;;;10.00;99.90;;;-144.05;83.79;56986.91;5025375;28;20037;-83
2024/04/05 03:45:22;;;;;;;11.27;2.78;;;;;;;-144.05;83.44;56978.41;5031668;28;20080;-85
2024/04/05 03:47:49;;;;;;;15.25;3.28;;;;;;;-144.05;83.58;56952.91;5032904;28;20029;-85
2024/04/05 03:50:14;;;;;;;22.73;3.60;;;10.60;99.90;;;-144.05;83.60;56974.16;5031550;28;20029;-87
2024/04/05 03:52:41;;;;;;;16.08;3.33;;;;;;;-144.05;83.92;56972.03;5022060;28;20036;-85
2024/04/05 03:55:07;;;;;;;12.50;2.63;;;9.80;99.90;;;-144.05;83.64;56961.41;5032718;28;20030;-84
2024/04/05 03:57:33;;;;;;;14.75;2.78;;;;;;;-144.05;84.01;56978.41;5042863;28;20037;-85
2024/04/05 04:00:00;;;;;;;10.88;2.90;;;15.00;99.90;;;-144.05;83.74;56967.78;5042900;28;20121;-86
2024/04/05 04:02:26;;;;;;;6.75;2.15;;;;;;;-144.05;84.32;56959.28;5031961;28;20026;-87
2024/04/05 04:04:52;;;;;;;15.55;3.22;;;;;;;-144.05;85.27;56963.53;5035205;28;20033;-87
2024/04/05 04:07:19;;;;;;;13.27;2.25;;;;;;;-144.05;84.81;56993.25;5026510;28;20022;-84
2024/04/05 04:09:48;;;;;;;20.10;2.95;;;;;;;-144.05;84.36;56986.91;5026324;28;20030;-88
2024/04/05 04:12:14;;;;;;;13.93;3.20;;;10.40;99.90;;;-144.05;83.63;56980.53;5037441;28;20029;-83
2024/04/05 04:14:43;;;;;;;16.55;3.20;;;;;;;-144.05;84.86;56997.50;5040997;28;20030;-85
2024/04/05 04:17:09;;;;;;;13.18;2.25;;;;;;;-144.05;84.32;56963.53;5053373;28;20041;-83
2024/04/05 04:19:36;;;;;;;11.50;2.50;;;;;;;-144.05;84.24;56978.41;5057200;28;20025;-84
2024/04/05 04:22:03;;;;;;;16.25;2.47;;;;;;;-144.05;84.44;56959.28;5056851;28;20233;-82
2024/04/05 04:24:29;;;;;;;10.77;3.05;;;;;;;-144.05;84.49;56959.28;5057009;28;20018;-83
2024/04/05 04:26:56;;;;;;;15.18;3.25;;;9.30;99.90;;;-144.05;84.59;56963.53;5055600;28;20021;-86
2024/04/05 04:29:22;;;;;;;16.70;3.63;;;;;;;-144.05;85.22;56982.66;5033131;28;20037;-87
2024/04/05 04:31:48;;;;;;;13.15;3.03;;;;;;;-144.05;84.59;56955.03;5033461;28;20579;-86
2024/04/05 04:34:15;;;;;;;14.73;2.35;;;;;;;-144.05;84.49;56980.53;5033073;28;20041;-85
2024/04/05 04:36:41;;;;;;;12.57;2.78;;;;;;;-144.05;84.39;56963.53;5024387;28;20081;-86
2024/04/05 04:39:08;;;;;;;10.90;2.60;;;;;;;-144.05;84.79;56969.91;5025166;28;20175;-84
2024/04/05 04:41:35;;;;;;;9.40;2.88;;;;;;;-144.05;84.11;56986.91;5027233;28;20147;-85
2024/04/05 04:44:02;;;;;;;12.00;2.40;;;;;;;-144.05;84.29;56955.03;5026565;28;20479;-85
2024/04/05 04:46:29;;;;;;;13.20;2.58;;;;;;;-144.05;84.39;56989.00;5028279;28;20079;-86
2024/04/05 04:48:57;;;;;;;18.15;3.22;;;;;;;-144.05;84.82;56957.16;5024994;28;20406;-86
2024/04/05 04:51:24;;;;;;;10.77;2.28;;;;;;;-144.05;84.20;56984.78;5030404;28;20083;-86
2024/04/05 04:53:50;;;;;;;15.13;3.80;;;;;;;-144.05;83.74;56940.16;5029676;28;20029;-84
2024/04/05 04:56:16;;;;;;;12.05;2.55;;;;;;;-144.05;83.72;56950.78;5022297;28;20120;-85
2024/04/05 04:58:43;;;;;;;13.82;2.70;;;;;;;-144.05;83.52;56963.53;5043663;28;20026;-86
2024/04/05 05:01:10;;;;;;;12.50;2.28;;;;;;;-144.05;83.45;56986.91;5028340;28;20129;-85
2024/04/05 05:03:36;;;;;;;8.23;2.28;;;;;;;-144.05;83.37;56978.41;5030918;28;20041;-83
2024/04/05 05:06:03;;;;;;;9.07;2.50;;;;;;;-144.05;84.00;56933.78;5023348;28;20119;-85
2024/04/05 05:08:30;;;;;;;14.23;2.80;;;;;;;-144.05;84.27;56948.66;5022209;28;20100;-84
2024/04/05 05:10:56;;;;;;;12.85;3.17;;;;;;;-144.05;85.42;56967.78;5016744;28;20057;-85
2024/04/05 05:13:22;;;;;;;18.30;2.58;;;;;;;-144.05;85.56;56976.28;5022296;28;20470;-83
2024/04/05 05:15:48;;;;;;;15.20;3.10;;;;;;;-144.05;85.47;56969.91;5017690;28;20030;-86
2024/04/05 05:18:15;;;;;;;7.57;2.53;;;;;;;-144.05;85.79;56961.41;5024202;28;20479;-84
2024/04/05 05:20:51;;;;;;;15.15;2.60;;;14.80;99.90;;;-144.05;86.28;56967.78;5015867;28;20038;-86
2024/04/05 05:23:18;;;;;;;14.60;3.03;;;9.80;99.90;;;-144.05;87.05;56984.78;5013842;28;20565;-84
2024/04/05 05:25:45;;;;;;;14.23;2.80;;;9.60;99.90;;;-144.05;88.26;56963.53;5016856;28;20128;-84
2024/04/05 05:28:12;;;;;;;17.45;3.28;;;;;;;-144.05;89.15;56942.28;5037729;28;20031;-82
2024/04/05 05:30:39;;;;;;;15.30;3.03;;;;;;;-144.05;88.40;56967.78;5031843;28;20468;-83
2024/04/05 05:33:07;;;;;;;15.40;3.83;;;;;;;-144.05;89.14;56957.16;5017473;28;20503;-81
2024/04/05 05:35:34;;;;;;;9.32;3.00;;;;;;;-144.05;89.93;56969.91;5031377;28;20030;-86
2024/04/05 05:38:03;;;;;;;13.90;2.88;;;;;;;-144.05;90.32;56972.03;5046409;28;20048;-84
2024/04/05 05:40:30;;;;;;;14.55;3.65;;;13.80;99.90;;;-144.05;90.98;56993.25;5038828;28;20446;-83
2024/04/05 05:42:56;;;;;;;16.63;3.38;;;;;;;-144.05;90.22;56972.03;5015377;28;20036;-84
2024/04/05 05:45:23;;;;;;;16.95;3.28;;;;;;;-144.05;90.37;56986.91;5031117;28;20388;-84
2024/04/05 05:47:56;;;;;;;14.27;2.80;;;;;;;-144.05;91.27;56967.78;5046836;28;20427;-82
2024/04/05 05:50:24;;;;;;;15.82;3.33;;;12.20;99.90;;;-144.05;91.20;56972.03;5030638;28;20040;-84
2024/04/05 05:52:51;;;;;;;20.77;3.03;;;14.50;99.90;;;-144.05;91.87;56974.16;5031995;28;20044;-84
2024/04/05 05:55:22;;;;;;;13.57;2.88;;;;;;;-144.05;92.98;56969.91;5030398;28;20450;-85
2024/04/05 05:57:49;;;;;;;10.93;3.50;;;9.00;99.90;;;-144.05;93.32;56984.78;5024661;28;20099;-86
2024/04/05 06:00:15;;;;;;;15.05;3.72;;;;;;;-144.05;93.03;56999.63;5048168;28;20033;-85
2024/04/05 06:02:41;;;;;;;15.15;3.40;;;14.20;99.90;;;-144.05;92.42;56969.91;5033304;28;20434;-82
2024/04/05 06:05:11;;;;;;;9.02;2.90;;;12.20;99.90;;;-144.05;92.57;56993.25;5025730;28;20083;-87
2024/04/05 06:07:38;;;;;;;13.23;2.65;;;;;;;-144.05;92.34;56984.78;5022408;28;20041;-86
2024/04/05 06:10:05;;;;;;;13.48;3.05;;;;;;;-144.05;91.69;56963.53;5029774;28;20124;-87
2024/04/05 06:12:38;;;;;;;8.88;2.65;;;;;;;-144.05;91.11;56957.16;5033417;28;20030;-86
2024/04/05 06:15:05;;;;;;;13.25;2.58;;;10.20;99.90;;;-144.05;91.47;56989.00;5032711;28;20034;-87
2024/04/05 06:17:35;;;;;;;12.60;2.60;;;;;;;-144.05;91.45;56955.03;5033272;28;20033;-85
2024/04/05 06:20:06;;;;;;;12.65;3.33;;;9.90;99.90;;;-144.05;91.56;56993.25;5045831;28;20037;-87
2024/04/05 06:22:34;;;;;;;11.95;3.28;;;12.20;99.90;;;-144.05;92.18;56978.41;5038870;28;20044;-88
2024/04/05 06:25:01;;;;;;;19.45;3.55;;;12.20;99.90;;;-144.05;92.21;56976.28;5054464;28;20033;-86
2024/04/05 06:27:27;;;;;;;12.25;3.33;;;;;;;-144.05;92.40;56940.16;5037829;28;20402;-86
2024/04/05 06:29:58;;;;;;;12.57;2.65;;;12.30;99.90;;;-144.05;92.66;56980.53;5033443;28;20029;-88
2024/04/05 06:32:24;;;;;;;12.65;3.03;;;;;;;-144.05;91.88;56959.28;5043656;28;20038;-86
2024/04/05 06:34:51;;;;;;;10.15;2.90;;;;;;;-144.05;91.39;56978.41;5042796;28;20057;-86
2024/04/05 06:37:17;;;;;;;13.43;2.80;;;;;;;-144.05;90.52;56948.66;5039155;28;20113;-85
2024/04/05 06:39:44;;;;;;;13.80;2.88;;;;;;;-144.05;90.14;56963.53;5035489;28;20580;-85
2024/04/05 06:42:11;;;;;;;10.10;2.75;;;;;;;-144.05;89.86;56980.53;5029139;28;20087;-86
2024/04/05 06:44:40;;;;;;;12.93;3.00;;;;;;;-144.05;89.67;56967.78;5041070;28;20061;-86
2024/04/05 06:47:09;;;;;;;11.43;2.42;;;12.70;99.90;;;-144.05;90.24;56955.03;5032726;28;20022;-87
2024/04/05 06:49:37;;;;;;;10.20;3.00;;;12.80;99.90;;;-144.05;90.59;56955.03;5039520;28;20495;-85
2024/04/05 06:52:07;;;;;;;9.90;2.40;;;12.90;99.90;;;-144.05;90.14;56972.03;5056469;28;20048;-85
2024/04/05 06:54:34;;;;;;;11.60;2.95;;;;;;;-144.05;89.94;56972.03;5032018;28;20026;-85
2024/04/05 06:57:02;;;;;;;9.50;2.72;;;;;;;-144.05;89.04;56963.53;5038775;28;20030;-85
2024/04/05 06:59:32;;;;;;;14.38;2.97;;;;;;;-144.05;87.69;56967.78;5039397;28;20451;-85
2024/04/05 07:01:58;;;;;;;8.57;2.28;;;;;;;-144.05;87.60;56963.53;5038375;28;20091;-86
2024/04/05 07:04:26;;;;;;;9.13;2.35;;;;;;;-144.05;87.40;56957.16;5039051;28;20103;-85
2024/04/05 07:06:53;;;;;;;12.43;2.20;;;;;;;-144.05;87.80;56957.16;5037367;28;20032;-86
2024/04/05 07:09:20;;;;;;;8.15;1.90;;;;;;;-144.05;87.05;56972.03;5050029;28;20120;-85
2024/04/05 07:11:48;;;;;;;11.05;2.50;;;;;;;-144.05;86.68;56959.28;5036943;28;20021;-87
2024/04/05 07:14:17;;;;;;;9.40;2.55;;;13.60;99.90;;;-144.05;86.45;56989.00;5037830;28;20033;-86
2024/04/05 07:16:48;;;;;;;12.55;3.28;;;;;;;-144.05;86.07;56963.53;5028225;28;20426;-84
2024/04/05 07:19:18;;;;;;;10.93;2.50;;;13.70;99.90;;;-144.05;85.23;56957.16;5039256;28;20116;-86
2024/04/05 07:21:48;;;;;;;10.60;2.42;;;13.80;99.90;;;-144.05;85.61;56969.91;5022272;28;20688;-86
2024/04/05 07:24:15;;;;;;;8.30;2.17;;;;;;;-144.05;84.34;56986.91;5040137;28;20044;-86
2024/04/05 07:26:45;;;;;;;8.95;2.17;;;;;;;-144.05;83.84;56961.41;5023278;28;20045;-85
2024/04/05 07:29:12;;;;;;;6.43;2.20;;;;;;;-144.05;83.49;56961.41;5040420;28;20029;-86
2024/04/05 07:31:38;;;;;;;7.93;3.00;;;;;;;-144.05;83.27;56967.78;5036934;28;20033;-87
2024/04/05 07:34:06;;;;;;;7.95;2.40;;;14.40;99.90;;;-144.05;82.98;56967.78;5041717;28;20100;-80
2024/04/05 07:36:33;;;;;;;8.15;2.08;;;14.30;99.90;;;-144.05;82.14;56959.28;5052659;28;20172;-86
2024/04/05 07:38:59;;;;;;;5.95;2.00;;;;;;;-144.05;82.47;56957.16;5031223;28;20062;-87
2024/04/05 07:41:26;;;;;;;5.97;2.10;;;;;;;-144.05;82.20;56967.78;5024196;28;20026;-85
2024/04/05 07:43:53;;;;;;;11.32;2.20;;;;;;;-144.05;82.55;56980.53;5033698;28;20021;-86
2024/04/05 07:46:20;;;;;;;8.73;1.90;;;;;;;-144.05;82.56;56965.66;5027835;28;20048;-84
2024/04/05 07:48:48;;;;;;;9.70;1.88;;;;;;;-144.05;82.96;56978.41;5026091;28;20029;-86
2024/04/05 07:51:14;;;;;;;9.48;1.85;;;;;;;-144.05;81.94;56965.66;5033763;28;20063;-86
2024/04/05 07:53:41;;;;;;;9.10;2.28;;;;;;;-144.05;82.51;56948.66;5041606;28;20026;-82
2024/04/05 07:56:07;;;;;;;6.97;2.05;;;;;;;-144.05;82.34;56982.66;5019069;28;20480;-86
2024/04/05 07:58:34;;;;;;;10.68;2.28;;;;;;;-144.05;82.79;56965.66;5024193;28;20025;-84
2024/04/05 08:01:03;;;;;;;6.22;2.50;;;;;;;-144.05;82.64;56942.28;5036141;28;20022;-84
2024/04/05 08:03:30;;;;;;;11.93;2.55;;;;;;;-144.05;82.76;56957.16;5034811;28;20029;-86
2024/04/05 08:05:56;;;;;;;11.27;2.20;;;;;;;-144.05;81.57;56955.03;5035353;28;20183;-85
2024/04/05 08:08:22;;;;;;;6.35;1.65;;;;;;;-144.05;81.70;56980.53;5034262;28;20026;-83
2024/04/05 08:10:48;;;;;;;8.57;1.88;;;11.60;99.90;;;-144.05;81.16;56969.91;5031663;28;20040;-83
2024/04/05 08:13:14;;;;;;;7.75;1.77;;;11.80;99.90;;;-144.05;80.52;56984.78;5034069;28;20414;-85
2024/04/05 08:15:40;;;;;;;10.57;2.33;;;;;;;-144.05;80.76;56946.53;5036025;28;20076;-85
2024/04/05 08:18:06;;;;;;;11.75;1.95;;;;;;;-144.05;79.60;56955.03;5030133;28;20025;-85
2024/04/05 08:20:33;;;;;;;11.63;2.00;;;;;;;-144.05;79.13;56967.78;5041935;28;20067;-84
2024/04/05 08:22:59;;;;;;;6.30;1.65;;;;;;;-144.05;78.53;56982.66;5032816;28;20022;-85
2024/04/05 08:25:25;;;;;;;7.70;2.35;;;;;;;-144.05;77.84;56961.41;5040013;28;20025;-83
2024/04/05 08:27:52;;;;;;;9.65;2.13;;;;;;;-144.05;77.61;56961.41;5045113;28;20112;-86
2024/04/05 08:30:18;;;;;;;6.35;2.10;;;;;;;-144.05;76.65;56984.78;5036289;28;20131;-85
2024/04/05 08:32:45;;;;;;;9.80;1.67;;;;;;;-144.05;75.46;56963.53;5026948;28;20411;-85
2024/04/05 08:35:13;;;;;;;5.03;1.60;;;13.30;99.90;;;-144.05;75.37;56982.66;5033666;28;20030;-85
2024/04/05 08:37:40;;;;;;;4.90;1.95;;;;;;;-144.05;73.38;56957.16;5024029;28;20099;-85
2024/04/05 08:40:10;;;;;;;8.27;2.08;;;17.10;99.90;;;-144.05;74.46;56978.41;5029255;28;20041;-85
2024/04/05 08:42:38;;;;;;;6.00;1.35;;;15.90;99.90;;;-144.05;73.68;56965.66;5033730;28;20168;-87
2024/04/05 08:45:06;;;;;;;9.95;1.77;;;12.70;99.90;;;-144.05;73.23;56976.28;5034174;28;20037;-86
2024/04/05 08:47:33;;;;;;;7.70;1.38;;;;;;;-144.05;73.03;56978.41;5032846;28;20029;-86
2024/04/05 08:50:03;;;;;;;11.15;1.90;;;13.70;99.90;;;-144.05;73.80;56963.53;5027886;28;20455;-87
2024/04/05 08:52:30;;;;;;;6.82;1.35;;;;;;;-144.05;74.33;56942.28;5040546;28;20038;-85
2024/04/05 08:54:59;;;;;;;3.40;1.55;;;;;;;-144.05;74.65;56950.78;5039157;28;20053;-87
2024/04/05 08:57:37;;;;;;;6.53;2.38;;;15.90;99.90;;;-144.05;73.72;56955.03;5051196;28;20034;-84
2024/04/05 09:00:07;;;;;;;7.47;2.00;;;17.20;99.90;;;-144.05;74.13;56984.78;5027606;28;20487;-84
2024/04/05 09:02:38;;;;;;;7.57;1.67;;;17.30;99.90;;;-144.05;73.29;56997.50;5024364;28;20033;-84
2024/04/05 09:05:09;;;;;;;8.50;2.13;;;;;;;-144.05;72.96;56963.53;5031570;28;20582;-86
2024/04/05 09:07:35;;;;;;;15.07;2.17;;;14.00;99.90;;;-144.05;73.16;56972.03;5034069;28;20212;-85
2024/04/05 09:10:14;;;;;;;11.10;1.80;;;16.00;99.90;;;-144.05;74.41;56978.41;5035721;28;20028;-85
2024/04/05 09:12:53;;;;;;;4.55;1.15;;;16.00;99.90;;;-144.05;73.68;56982.66;5030380;28;20029;-86
2024/04/05 09:15:24;;;;;;;5.43;1.42;;;;;;;-144.05;72.94;56959.28;5048922;28;20029;-85
2024/04/05 09:17:50;;;;;;;7.57;1.83;;;;;;;-144.05;73.45;56989.00;5032670;28;20017;-84
2024/04/05 09:20:25;;;;;;;4.00;1.40;;;;;;;-144.05;73.40;56978.41;5016858;28;20033;-85
2024/04/05 09:23:08;;;;;;;6.35;1.40;;;15.90;99.90;;;-144.05;73.34;56982.66;5021169;28;20096;-85
2024/04/05 09:25:38;;;;;;;6.90;1.80;;;14.00;99.90;;;-144.05;73.35;56959.28;5033407;28;20399;-86
2024/04/05 09:28:18;;;;;;;5.40;1.40;;;16.00;99.90;;;-144.05;72.32;56978.41;5027918;28;20121;-88
2024/04/05 09:30:46;;;;;;;3.97;1.27;;;;;;;-144.05;72.52;56976.28;5033788;28;20025;-83
2024/04/05 09:33:22;;;;;;;5.65;1.52;;;;;;;-144.05;71.96;56980.53;5046860;28;20045;-84
2024/04/05 09:35:49;;;;;;;6.97;1.60;;;16.20;99.90;;;-144.05;70.80;56976.28;5029269;28;20144;-87
2024/04/05 09:38:16;;;;;;;3.72;1.27;;;;;;;-144.05;70.19;56976.28;5030553;28;20075;-85
2024/04/05 09:40:43;;;;;;;4.05;1.05;;;;;;;-144.05;70.31;56967.78;5033824;28;20041;-87
2024/04/05 09:43:10;;;;;;;6.28;1.63;;;;;;;-144.05;69.20;56974.16;5049873;28;20052;-86
2024/04/05 09:45:36;;;;;;;6.05;1.55;;;;;;;-144.05;69.00;56982.66;5025405;28;20057;-85
2024/04/05 09:48:04;;;;;;;7.45;1.20;;;;;;;-144.05;69.28;56965.66;5048775;28;20032;-86
2024/04/05 09:50:30;;;;;;;7.05;1.40;;;14.00;99.90;;;-144.05;68.86;56967.78;5017635;28;20427;-86
2024/04/05 09:52:59;;;;;;;7.10;1.73;;;16.60;99.90;;;-144.05;68.12;56980.53;5032472;28;20041;-83
2024/04/05 09:55:31;;;;;;;5.90;1.48;;;17.90;99.90;;;-144.05;68.14;56982.66;5016812;28;20088;-86
2024/04/05 09:57:57;;;;;;;4.82;1.45;;;;;;;-144.05;67.56;56980.53;5031595;28;20025;-85
2024/04/05 10:00:27;;;;;;;4.15;1.15;;;16.70;99.90;;;-144.05;67.66;56980.53;5038283;28;20037;-85
2024/04/05 10:02:59;;;;;;;6.25;1.55;;;16.70;99.90;;;-144.05;66.53;56976.28;5025370;28;20032;-83
2024/04/05 10:05:32;;;;;;;5.45;1.55;;;14.00;99.90;;;-144.05;67.00;56980.53;5032721;28;20400;-85
2024/04/05 10:08:16;;;;;;;3.05;1.42;;;16.60;99.90;;;-144.05;66.79;56959.28;5019166;28;20041;-87
2024/04/05 10:10:45;;;;;;;5.05;1.63;;;;;;;-144.05;67.38;56972.03;5041697;28;20033;-85
2024/04/05 10:13:18;;;;;;;5.18;1.27;;;16.70;99.90;;;-144.05;67.66;56969.91;5033029;28;20022;-86
2024/04/05 10:16:02;;;;;;;6.35;1.60;;;;;;;-144.05;66.57;56972.03;5022492;28;20065;-86
2024/04/05 10:18:39;;;;;;;3.97;1.30;;;14.00;99.90;;;-144.05;67.98;56959.28;5047790;28;20030;-81
2024/04/05 10:21:11;;;;;;;9.25;1.70;;;;;;;-144.05;67.41;56984.78;5015205;28;20018;-87
2024/04/05 10:23:43;;;;;;;5.53;1.58;;;16.60;99.90;;;-144.05;67.49;56982.66;5022504;28;20045;-85
2024/04/05 10:26:13;;;;;;;5.95;1.35;;;;;;;-144.05;68.62;56972.03;5018221;28;20069;-85
2024/04/05 10:28:40;;;;;;;5.70;1.33;;;;;;;-144.05;67.87;56963.53;5014946;28;20033;-84
2024/04/05 10:31:07;;;;;;;6.50;1.45;;;;;;;-144.05;67.47;56972.03;5029236;28;20029;-83
2024/04/05 10:33:33;;;;;;;2.95;1.13;;;;;;;-144.05;67.31;56976.28;5033714;28;20033;-86
2024/04/05 10:36:00;;;;;;;3.90;1.13;;;;;;;-144.05;67.61;56976.28;5037680;28;20029;-86
2024/04/05 10:38:30;;;;;;;5.57;1.48;;;;;;;-144.05;67.77;56982.66;5038997;28;20040;-87
2024/04/05 10:41:04;;;;;;;3.45;1.42;;;;;;;-144.05;68.10;56982.66;5019868;28;20479;-85
2024/04/05 10:43:30;;;;;;;4.85;1.83;;;;;;;-144.05;69.98;56984.78;5017851;28;20038;-86
2024/04/05 10:45:58;;;;;;;4.80;1.23;;;16.30;99.90;;;-144.05;70.00;56995.38;5033690;28;20040;-85
2024/04/05 10:48:25;;;;;;;4.88;1.33;;;;;;;-144.05;71.21;56967.78;5033758;28;20044;-86
2024/04/05 10:50:53;;;;;;;3.78;1.25;;;;;;;-144.05;71.89;56965.66;5016098;28;20511;-86